createdAt,value
2023-12-24T00:01:34.231Z,77.2666
2023-12-24T00:03:34.066Z,76.63574
2023-12-24T00:05:34.125Z,76.7627
2023-12-24T00:07:34.063Z,77.30566
2023-12-24T00:11:26.529Z,76.82617
2023-12-24T00:13:26.442Z,77.07031
2023-12-24T00:15:26.413Z,77.28223
2023-12-24T00:17:26.573Z,77.4248
2023-12-24T00:19:26.609Z,77.1875
2023-12-24T00:21:26.505Z,76.85059
2023-12-24T00:23:26.470Z,76.85938
2023-12-24T00:26:16.742Z,76.78223
2023-12-24T00:28:16.803Z,77.48535
2023-12-24T00:30:16.695Z,77.13086
2023-12-24T00:32:16.729Z,77.08789
2023-12-24T00:34:16.832Z,77.12402
2023-12-24T00:36:16.653Z,76.94336
2023-12-24T00:38:16.780Z,76.66309
2023-12-24T00:41:01.016Z,76.91211
2023-12-24T00:43:00.648Z,77.21484
2023-12-24T00:45:00.764Z,77.06348
2023-12-24T00:47:00.818Z,77.18457
2023-12-24T00:49:01.262Z,77.80176
2023-12-24T00:51:00.731Z,77.58105
2023-12-24T00:53:00.801Z,77.52637
2023-12-24T00:56:08.900Z,77.86816
2023-12-24T00:58:08.714Z,77.70313
2023-12-24T01:00:08.736Z,77.50586
2023-12-24T01:02:08.748Z,77.47168
2023-12-24T01:04:08.960Z,77.35645
2023-12-24T01:06:08.881Z,77.41797
2023-12-24T01:08:08.828Z,77.71191
2023-12-24T01:10:08.670Z,77.5918
2023-12-24T01:11:12.155Z,77.50781
2023-12-24T01:13:12.047Z,77.88965
2023-12-24T01:15:12.148Z,77.69043
2023-12-24T01:17:12.299Z,77.87793
2023-12-24T01:19:12.205Z,77.88477
2023-12-24T01:21:12.086Z,78.18555
2023-12-24T01:23:12.310Z,78.3916
2023-12-24T01:25:12.085Z,77.92773
2023-12-24T01:26:32.916Z,77.56641
2023-12-24T01:28:32.716Z,77.99121
2023-12-24T01:30:32.915Z,77.87793
2023-12-24T01:32:33.168Z,77.84668
2023-12-24T01:34:32.779Z,77.83008
2023-12-24T01:36:32.793Z,77.89355
2023-12-24T01:38:32.882Z,77.42676
2023-12-24T01:42:01.786Z,77.41113
2023-12-24T01:44:01.976Z,77.52637
2023-12-24T01:46:01.869Z,77.85059
2023-12-24T01:48:01.909Z,77.71582
2023-12-24T01:50:01.780Z,77.74219
2023-12-24T01:52:01.852Z,77.90039
2023-12-24T01:54:05.539Z,77.82813
2023-12-24T01:57:21.449Z,78.10156
2023-12-24T01:59:21.683Z,78.41309
2023-12-24T02:01:21.503Z,78.29395
2023-12-24T02:03:21.614Z,78.40234
2023-12-24T02:05:21.617Z,78.91992
2023-12-24T02:07:21.500Z,78.95801
2023-12-24T02:09:21.441Z,79.16406
2023-12-24T02:12:44.348Z,79.08398
2023-12-24T02:14:44.520Z,79.15039
2023-12-24T02:16:44.307Z,79.08203
2023-12-24T02:18:44.548Z,79.09375
2023-12-24T02:20:44.453Z,79.33887
2023-12-24T02:22:44.522Z,78.94629
2023-12-24T02:24:44.281Z,79.25977
2023-12-24T02:27:54.218Z,79.12012
2023-12-24T02:29:54.220Z,79.45898
2023-12-24T02:31:54.159Z,79.22754
2023-12-24T02:33:54.279Z,78.86719
2023-12-24T02:35:54.149Z,79.19629
2023-12-24T02:37:54.209Z,78.99707
2023-12-24T02:39:54.103Z,79.15527
2023-12-24T02:42:14.183Z,78.94824
2023-12-24T02:44:14.107Z,78.91602
2023-12-24T02:46:14.281Z,79.46777
2023-12-24T02:48:14.464Z,78.84473
2023-12-24T02:50:14.237Z,78.56445
2023-12-24T02:52:14.168Z,78.91895
2023-12-24T02:54:14.061Z,77.6377
2023-12-24T02:56:14.037Z,76.91797
2023-12-24T02:57:27.535Z,77.40137
2023-12-24T02:59:27.732Z,77.40234
2023-12-24T03:01:27.656Z,77.09473
2023-12-24T03:03:27.913Z,77.16504
2023-12-24T03:05:27.918Z,76.77539
2023-12-24T03:07:27.756Z,76.83008
2023-12-24T03:09:27.732Z,76.76953
2023-12-24T03:11:27.980Z,76.87598
2023-12-24T03:13:12.638Z,76.57617
2023-12-24T03:15:12.525Z,76.56055
2023-12-24T03:17:12.691Z,76.36328
2023-12-24T03:19:12.767Z,76.4834
2023-12-24T03:21:12.570Z,76.9209
2023-12-24T03:23:12.667Z,77.14551
2023-12-24T03:25:12.546Z,77.14941
2023-12-24T03:27:44.984Z,76.87598
2023-12-24T03:29:45.127Z,76.86816
2023-12-24T03:31:45.054Z,76.70605
2023-12-24T03:33:47.987Z,77.01074
2023-12-24T03:35:45.325Z,77.00488
2023-12-24T03:37:44.862Z,77.20801
2023-12-24T03:39:44.977Z,77.29688
2023-12-24T03:41:45.072Z,77.22461
2023-12-24T03:43:00.818Z,77.17188
2023-12-24T03:45:00.710Z,77.38867
2023-12-24T03:47:00.970Z,77.64063
2023-12-24T03:49:01.005Z,77.56543
2023-12-24T03:51:00.762Z,77.68555
2023-12-24T03:53:01.878Z,77.87402
2023-12-24T03:55:00.751Z,77.64941
2023-12-24T03:58:25.700Z,77.45996
2023-12-24T04:00:25.454Z,78.0332
2023-12-24T04:02:25.584Z,77.73438
2023-12-24T04:04:25.661Z,77.79102
2023-12-24T04:06:25.430Z,78.04199
2023-12-24T04:08:25.467Z,77.86328
2023-12-24T04:10:25.736Z,77.73438
2023-12-24T04:13:45.782Z,77.61914
2023-12-24T04:15:45.849Z,77.68066
2023-12-24T04:17:46.307Z,78.50781
2023-12-24T04:19:45.749Z,77.83301
2023-12-24T04:21:45.789Z,77.97754
2023-12-24T04:23:46.018Z,77.82422
2023-12-24T04:25:45.846Z,78.44922
2023-12-24T04:28:38.131Z,78.34082
2023-12-24T04:30:38.084Z,77.9502
2023-12-24T04:32:38.177Z,78.34375
2023-12-24T04:34:37.930Z,78.04395
2023-12-24T04:36:38.078Z,77.56641
2023-12-24T04:38:38.102Z,78.00977
2023-12-24T04:40:37.936Z,77.97363
2023-12-24T04:43:52.030Z,78.25391
2023-12-24T04:45:51.992Z,78.05176
2023-12-24T04:47:52.094Z,77.8291
2023-12-24T04:49:52.127Z,77.47852
2023-12-24T04:51:52.084Z,77.59766
2023-12-24T04:53:52.061Z,77.69043
2023-12-24T04:55:51.932Z,78.15625
2023-12-24T04:59:11.597Z,78.72363
2023-12-24T05:01:11.493Z,79.0918
2023-12-24T05:03:11.624Z,78.72168
2023-12-24T05:05:11.611Z,78.2207
2023-12-24T05:07:11.441Z,78.7168
2023-12-24T05:09:11.417Z,78.87793
2023-12-24T05:11:11.444Z,78.80957
2023-12-24T05:14:08.848Z,78.26855
2023-12-24T05:16:08.790Z,78.56641
2023-12-24T05:18:08.978Z,78.64355
2023-12-24T05:20:08.833Z,78.40039
2023-12-24T05:22:08.830Z,78.86035
2023-12-24T05:24:08.759Z,79.1582
2023-12-24T05:26:08.801Z,79.18555
2023-12-24T05:29:02.636Z,79.125
2023-12-24T05:31:02.547Z,78.79492
2023-12-24T05:33:02.929Z,79.01367
2023-12-24T05:35:02.594Z,78.94141
2023-12-24T05:37:02.733Z,78.82813
2023-12-24T05:39:02.873Z,79.23047
2023-12-24T05:41:02.524Z,79.6377
2023-12-24T05:43:02.629Z,79.47754
2023-12-24T05:44:32.934Z,79.36523
2023-12-24T05:46:32.957Z,79.74316
2023-12-24T05:48:33.176Z,79.59473
2023-12-24T05:50:33.059Z,79.52832
2023-12-24T05:52:32.948Z,79.83203
2023-12-24T05:54:33.118Z,79.7832
2023-12-24T05:56:32.924Z,79.7373
2023-12-24T05:59:49.540Z,80.13867
2023-12-24T06:01:49.544Z,80.30762
2023-12-24T06:03:49.547Z,80.75
2023-12-24T06:05:49.919Z,80.65918
2023-12-24T06:07:50.569Z,80.3623
2023-12-24T06:09:49.474Z,80.47266
2023-12-24T06:11:49.421Z,80.57422
2023-12-24T06:15:07.290Z,80.65039
2023-12-24T06:17:07.184Z,81.0791
2023-12-24T06:19:07.537Z,80.75977
2023-12-24T06:21:07.064Z,80.85742
2023-12-24T06:23:07.061Z,80.83203
2023-12-24T06:25:07.123Z,80.95898
2023-12-24T06:27:07.059Z,81.11621
2023-12-24T06:29:59.788Z,81.00195
2023-12-24T06:31:59.859Z,81.08301
2023-12-24T06:34:00.566Z,80.875
2023-12-24T06:35:59.848Z,80.60645
2023-12-24T06:37:59.901Z,80.82715
2023-12-24T06:39:59.766Z,80.82422
2023-12-24T06:41:59.845Z,79.25879
2023-12-24T06:45:21.853Z,79.64844
2023-12-24T06:47:22.056Z,79.46387
2023-12-24T06:49:22.078Z,79.44531
2023-12-24T06:51:21.826Z,79.24512
2023-12-24T06:53:21.863Z,79.36621
2023-12-24T06:55:21.831Z,79.37598
2023-12-24T06:57:21.827Z,79.38672
2023-12-24T07:00:03.017Z,79.31934
2023-12-24T07:02:02.819Z,79.72266
2023-12-24T07:04:02.691Z,79.64746
2023-12-24T07:06:02.949Z,79.45215
2023-12-24T07:08:02.718Z,79.18262
2023-12-24T07:10:05.667Z,79.54102
2023-12-24T07:12:02.708Z,79.50684
2023-12-24T07:14:02.676Z,79.65625
2023-12-24T07:15:12.665Z,79.61914
2023-12-24T07:17:12.721Z,79.63672
2023-12-24T07:19:12.782Z,79.43457
2023-12-24T07:21:12.716Z,79.71289
2023-12-24T07:25:12.793Z,80.34375
2023-12-24T07:27:12.716Z,80.45996
2023-12-24T07:29:12.806Z,79.50195
2023-12-24T07:30:57.448Z,80.16992
2023-12-24T07:32:57.702Z,79.93164
2023-12-24T07:34:56.744Z,79.16895
2023-12-24T07:36:56.871Z,80.09375
2023-12-24T07:38:56.637Z,78.93164
2023-12-24T07:40:56.558Z,79.45117
2023-12-24T07:42:56.955Z,78.58398
2023-12-24T07:46:13.364Z,78.70605
2023-12-24T07:48:13.380Z,79.22852
2023-12-24T07:50:13.257Z,79.82813
2023-12-24T07:52:13.161Z,75.07324
2023-12-24T07:54:13.064Z,74.62695
2023-12-24T07:56:13.230Z,74.53711
2023-12-24T07:58:13.205Z,72.91992
2023-12-24T08:01:01.616Z,73.50586
2023-12-24T08:03:01.810Z,73.26465
2023-12-24T08:05:01.729Z,75.14063
2023-12-24T08:07:01.697Z,75.81445
2023-12-24T08:09:01.504Z,75.59961
2023-12-24T08:11:14.381Z,74.69043
2023-12-24T08:13:13.897Z,74.34863
2023-12-24T08:16:19.994Z,73.16797
2023-12-24T08:18:20.369Z,71.66602
2023-12-24T08:20:20.021Z,71.79688
2023-12-24T08:22:20.032Z,70.00977
2023-12-24T08:24:20.023Z,71.87598
2023-12-24T08:26:20.296Z,69.37305
2023-12-24T08:28:19.917Z,71.80469
2023-12-24T08:31:53.629Z,72.21973
2023-12-24T08:33:53.759Z,72.38672
2023-12-24T08:35:53.581Z,71.40723
2023-12-24T08:37:53.685Z,71.39551
2023-12-24T08:39:53.567Z,71.06445
2023-12-24T08:41:53.875Z,70.11914
2023-12-24T08:43:53.592Z,70.59277
2023-12-24T08:46:13.454Z,70.2334
2023-12-24T08:48:14.517Z,65.08398
2023-12-24T08:50:14.006Z,67.4541
2023-12-24T08:52:13.444Z,65.6543
2023-12-24T08:54:13.505Z,66.19238
2023-12-24T08:56:13.652Z,67.82324
2023-12-24T08:58:13.607Z,62.76172
2023-12-24T09:00:13.537Z,61.81836
2023-12-24T09:01:18.927Z,62.48047
2023-12-24T09:03:19.057Z,60.79492
2023-12-24T09:05:19.060Z,65.04395
2023-12-24T09:07:19.418Z,65.27441
2023-12-24T09:09:19.015Z,62.68066
2023-12-24T09:11:19.107Z,63.25977
2023-12-24T09:13:23.257Z,60.83203
2023-12-24T09:15:18.950Z,62.49902
2023-12-24T09:17:16.969Z,61.38086
2023-12-24T09:19:17.011Z,61.44629
2023-12-24T09:21:16.770Z,59.67676
2023-12-24T09:23:17.221Z,59.28125
2023-12-24T09:25:16.948Z,59.24219
2023-12-24T09:27:16.793Z,58.75488
2023-12-24T09:29:16.859Z,58.38965
2023-12-24T09:32:24.509Z,61.4707
2023-12-24T09:34:24.197Z,59.1582
2023-12-24T09:36:24.283Z,59.60645
2023-12-24T09:38:24.449Z,57.19238
2023-12-24T09:40:24.187Z,56.66113
2023-12-24T09:42:24.186Z,55.63965
2023-12-24T09:44:24.412Z,55.80273
2023-12-24T09:47:10.366Z,57.2334
2023-12-24T09:49:10.493Z,56.25684
2023-12-24T09:51:10.387Z,54.87598
2023-12-24T09:53:10.397Z,54.86133
2023-12-24T09:55:10.281Z,56.86816
2023-12-24T09:57:10.553Z,52.2334
2023-12-24T09:59:10.805Z,58.33105
2023-12-24T10:02:23.413Z,52.82227
2023-12-24T10:04:23.320Z,51.94629
2023-12-24T10:06:23.400Z,53.99512
2023-12-24T10:08:23.336Z,54.83691
2023-12-24T10:10:27.160Z,53.48242
2023-12-24T10:12:23.288Z,51.15527
2023-12-24T10:14:23.339Z,53.57031
2023-12-24T10:17:19.608Z,55.29883
2023-12-24T10:19:19.627Z,50.29492
2023-12-24T10:21:19.387Z,51.21094
2023-12-24T10:23:19.590Z,50.23828
2023-12-24T10:25:19.393Z,51.94336
2023-12-24T10:27:19.444Z,53.4541
2023-12-24T10:29:19.566Z,52.65527
2023-12-24T10:32:47.232Z,52.14355
2023-12-24T10:34:47.423Z,51.4834
2023-12-24T10:36:47.052Z,50.20703
2023-12-24T10:38:47.011Z,51.33789
2023-12-24T10:40:47.155Z,51.00977
2023-12-24T10:42:47.063Z,50.32422
2023-12-24T10:44:47.047Z,50.48926
2023-12-24T10:48:08.519Z,50.10352
2023-12-24T10:50:08.207Z,50.08203
2023-12-24T10:52:08.007Z,49.79492
2023-12-24T10:54:08.128Z,49.75
2023-12-24T10:56:08.090Z,49.18457
2023-12-24T10:58:08.111Z,51.75488
2023-12-24T11:00:08.440Z,50.48242
2023-12-24T11:03:24.495Z,48.75586
2023-12-24T11:05:24.709Z,49.12988
2023-12-24T11:07:24.408Z,51.37109
2023-12-24T11:09:24.441Z,50.79688
2023-12-24T11:11:24.506Z,50.85449
2023-12-24T11:13:24.479Z,48.72852
2023-12-24T11:15:24.548Z,49.55664
2023-12-24T11:18:21.151Z,50.56055
2023-12-24T11:20:21.134Z,50.14551
2023-12-24T11:22:21.040Z,50.77637
2023-12-24T11:24:20.907Z,50.14648
2023-12-24T11:26:20.898Z,49.15723
2023-12-24T11:28:21.006Z,49.5
2023-12-24T11:30:20.946Z,51.70313
2023-12-24T11:33:01.170Z,52.05957
2023-12-24T11:35:01.264Z,48.94434
2023-12-24T11:37:01.173Z,50.28711
2023-12-24T11:39:01.261Z,50.22656
2023-12-24T11:41:01.190Z,48.36719
2023-12-24T11:43:01.050Z,50.24316
2023-12-24T11:45:01.063Z,50.29395
2023-12-24T11:47:01.255Z,48.54297
2023-12-24T11:48:32.702Z,50.83594
2023-12-24T11:50:32.646Z,51.36816
2023-12-24T11:52:32.631Z,49.98047
2023-12-24T11:54:32.572Z,48.87695
2023-12-24T11:56:32.891Z,49.18555
2023-12-24T11:58:32.625Z,49.51172
2023-12-24T12:00:32.686Z,50.39258
2023-12-24T12:03:18.227Z,49.85645
2023-12-24T12:05:18.291Z,49.19434
2023-12-24T12:07:18.392Z,49.84863
2023-12-24T12:09:19.739Z,49.25195
2023-12-24T12:11:18.378Z,49.56836
2023-12-24T12:13:18.139Z,49.4707
2023-12-24T12:15:18.276Z,49.96094
2023-12-24T12:17:18.312Z,49.68262
2023-12-24T12:19:02.244Z,50.54785
2023-12-24T12:21:02.342Z,49.62695
2023-12-24T12:23:02.242Z,49.59375
2023-12-24T12:25:02.287Z,49.98145
2023-12-24T12:27:02.262Z,50.07715
2023-12-24T12:29:02.561Z,50.27246
2023-12-24T12:31:02.404Z,49.84277
2023-12-24T12:33:53.863Z,49.27344
2023-12-24T12:35:53.612Z,49.28906
2023-12-24T12:37:53.634Z,49.36133
2023-12-24T12:39:53.843Z,48.74023
2023-12-24T12:41:53.608Z,49.0293
2023-12-24T12:43:53.711Z,49.39746
2023-12-24T12:45:53.819Z,49.0332
2023-12-24T12:49:42.678Z,49.12598
2023-12-24T12:51:42.612Z,50.3418
2023-12-24T12:53:42.743Z,49.65137
2023-12-24T12:55:42.655Z,49.40332
2023-12-24T12:57:42.732Z,49.33789
2023-12-24T12:59:42.767Z,49.06543
2023-12-24T13:01:42.617Z,49.40527
2023-12-24T13:04:29.230Z,49.49805
2023-12-24T13:06:29.480Z,49.16699
2023-12-24T13:08:29.425Z,49.3916
2023-12-24T13:10:29.377Z,50.09766
2023-12-24T13:12:29.343Z,50.58789
2023-12-24T13:14:29.449Z,50.69141
2023-12-24T13:16:29.544Z,50.54395
2023-12-24T13:19:15.231Z,51.41895
2023-12-24T13:21:15.155Z,51.2627
2023-12-24T13:23:15.199Z,51.47168
2023-12-24T13:25:15.262Z,51.12305
2023-12-24T13:27:15.451Z,51.26953
2023-12-24T13:29:15.229Z,51.10352
2023-12-24T13:31:15.179Z,51.15137
2023-12-24T13:34:54.377Z,51.32227
2023-12-24T13:36:54.335Z,51.32031
2023-12-24T13:38:54.612Z,51.4043
2023-12-24T13:41:00.417Z,51.86035
2023-12-24T13:43:00.774Z,51.62012
2023-12-24T13:44:54.324Z,51.87109
2023-12-24T13:46:54.326Z,52.73535
2023-12-24T13:50:22.422Z,52.53418
2023-12-24T13:52:15.496Z,52.61328
2023-12-24T13:54:15.596Z,52.80078
2023-12-24T13:56:15.543Z,53.29102
2023-12-24T13:58:15.607Z,52.91309
2023-12-24T14:00:21.964Z,53.36523
2023-12-24T14:02:15.568Z,53.13184
2023-12-24T14:04:53.193Z,53.39258
2023-12-24T14:06:53.033Z,53.63965
2023-12-24T14:08:53.517Z,53.50293
2023-12-24T14:10:53.047Z,53.69727
2023-12-24T14:12:53.415Z,54.30859
2023-12-24T14:14:53.008Z,53.61328
2023-12-24T14:16:53.087Z,54.25
2023-12-24T14:20:13.329Z,54.12012
2023-12-24T14:22:12.770Z,54.46484
2023-12-24T14:24:12.990Z,54.38965
2023-12-24T14:26:12.956Z,54.0752
2023-12-24T14:28:12.815Z,54.15234
2023-12-24T14:30:12.905Z,54.08691
2023-12-24T14:32:12.903Z,54.25195
2023-12-24T14:35:42.432Z,54.31348
2023-12-24T14:37:42.281Z,54.66113
2023-12-24T14:39:41.911Z,54.99121
2023-12-24T14:41:42.082Z,55.15234
2023-12-24T14:43:41.895Z,54.79004
2023-12-24T14:45:41.868Z,54.64648
2023-12-24T14:47:42.055Z,54.9668
2023-12-24T14:50:56.950Z,54.97168
2023-12-24T14:52:56.827Z,55.21582
2023-12-24T14:54:56.501Z,55.19434
2023-12-24T14:56:56.511Z,55.32422
2023-12-24T14:58:56.788Z,55.33887
2023-12-24T15:00:56.559Z,55.48047
2023-12-24T15:02:57.353Z,55.28223
2023-12-24T15:05:56.705Z,55.31055
2023-12-24T15:07:56.470Z,55.33398
2023-12-24T15:09:56.502Z,55.2666
2023-12-24T15:11:56.721Z,55.82617
2023-12-24T15:13:56.441Z,56.30273
2023-12-24T15:15:56.630Z,56.2334
2023-12-24T15:17:56.761Z,56.5625
2023-12-24T15:20:56.009Z,56.2373
2023-12-24T15:22:55.942Z,56.47266
2023-12-24T15:24:55.891Z,56.85742
2023-12-24T15:26:55.931Z,56.56348
2023-12-24T15:28:55.749Z,56.89258
2023-12-24T15:30:55.971Z,57.25781
2023-12-24T15:32:56.566Z,57.59668
2023-12-24T15:35:52.917Z,57.51953
2023-12-24T15:37:52.807Z,57.54199
2023-12-24T15:39:52.814Z,57.69629
2023-12-24T15:41:53.004Z,57.82617
2023-12-24T15:43:52.962Z,57.84473
2023-12-24T15:45:52.859Z,57.59863
2023-12-24T15:47:53.048Z,57.90625
2023-12-24T15:51:45.853Z,58.33496
2023-12-24T15:53:45.886Z,58.89258
2023-12-24T15:55:45.917Z,59.14648
2023-12-24T15:57:45.960Z,59.22461
2023-12-24T15:59:46.500Z,58.74707
2023-12-24T16:01:45.792Z,59.15723
2023-12-24T16:03:45.852Z,58.5498
2023-12-24T16:06:44.337Z,59.36328
2023-12-24T16:08:43.894Z,59.37109
2023-12-24T16:10:43.963Z,59.66602
2023-12-24T16:12:43.804Z,59.95508
2023-12-24T16:14:43.960Z,60.02539
2023-12-24T16:16:43.932Z,59.87793
2023-12-24T16:18:43.984Z,60.1416
2023-12-24T16:21:50.825Z,60.94824
2023-12-24T16:23:51.131Z,61.0498
2023-12-24T16:25:50.865Z,61.4043
2023-12-24T16:27:51.229Z,61.25586
2023-12-24T16:29:51.021Z,61.30762
2023-12-24T16:31:50.822Z,61.25977
2023-12-24T16:33:54.093Z,61.32227
2023-12-24T16:37:14.119Z,61.32715
2023-12-24T16:39:14.138Z,60.94531
2023-12-24T16:41:14.220Z,61.00586
2023-12-24T16:43:14.133Z,61.02148
2023-12-24T16:45:14.126Z,61.42773
2023-12-24T16:47:14.208Z,61.13574
2023-12-24T16:49:14.387Z,61.87207
2023-12-24T16:52:10.372Z,62.46973
2023-12-24T16:54:10.350Z,62.44629
2023-12-24T16:56:10.508Z,63.04785
2023-12-24T16:58:10.444Z,63.49609
2023-12-24T17:00:10.475Z,63.76367
2023-12-24T17:02:10.645Z,64.11523
2023-12-24T17:04:15.098Z,64.0127
2023-12-24T17:06:43.980Z,64.625
2023-12-24T17:08:44.162Z,64.45605
2023-12-24T17:10:43.984Z,64.8623
2023-12-24T17:12:44.116Z,64.8291
2023-12-24T17:14:43.959Z,65.36328
2023-12-24T17:16:43.905Z,65.75
2023-12-24T17:18:44.221Z,65.56055
2023-12-24T17:20:44.202Z,65.46484
2023-12-24T17:22:44.974Z,65.48438
2023-12-24T17:24:44.669Z,65.12793
2023-12-24T17:26:44.875Z,64.92188
2023-12-24T17:28:44.693Z,64.8418
2023-12-24T17:30:44.763Z,64.13281
2023-12-24T17:32:45.169Z,64.23438
2023-12-24T17:34:45.394Z,64.67969
2023-12-24T17:37:17.128Z,63.96289
2023-12-24T17:39:17.182Z,64.02734
2023-12-24T17:41:17.180Z,64.04004
2023-12-24T17:43:17.095Z,65.12207
2023-12-24T17:45:17.194Z,65.36328
2023-12-24T17:47:17.164Z,64.9541
2023-12-24T17:49:17.460Z,65.1084
2023-12-24T17:52:33.021Z,65.58789
2023-12-24T17:54:33.086Z,65.63867
2023-12-24T17:56:33.065Z,65.98535
2023-12-24T17:58:32.986Z,65.86035
2023-12-24T18:00:33.154Z,65.9873
2023-12-24T18:02:33.174Z,65.69629
2023-12-24T18:04:32.890Z,64.91211
2023-12-24T18:08:15.460Z,64.73535
2023-12-24T18:10:15.165Z,65.98242
2023-12-24T18:12:15.149Z,65.83887
2023-12-24T18:14:15.226Z,66.09277
2023-12-24T18:16:15.383Z,66.53027
2023-12-24T18:18:15.435Z,66.72754
2023-12-24T18:20:15.420Z,66.45313
2023-12-24T18:23:06.556Z,66.01758
2023-12-24T18:25:06.463Z,66.7334
2023-12-24T18:27:06.563Z,66.34473
2023-12-24T18:29:06.440Z,66.08789
2023-12-24T18:31:06.627Z,66.89453
2023-12-24T18:33:07.047Z,67.47656
2023-12-24T18:35:06.611Z,67.47949
2023-12-24T18:37:53.569Z,67.66016
2023-12-24T18:39:53.561Z,66.85449
2023-12-24T18:41:53.887Z,67.07129
2023-12-24T18:43:53.584Z,68.12695
2023-12-24T18:45:53.520Z,67.66113
2023-12-24T18:47:54.213Z,67.78809
2023-12-24T18:49:53.936Z,68.36133
2023-12-24T18:53:08.779Z,68.01855
2023-12-24T18:55:08.621Z,68.52637
2023-12-24T18:57:08.640Z,67.95117
2023-12-24T18:59:08.632Z,68.13184
2023-12-24T19:03:08.913Z,67.65918
2023-12-24T19:05:08.778Z,67.91309
2023-12-24T19:08:08.400Z,68.1543
2023-12-24T19:10:08.320Z,68.11816
2023-12-24T19:12:08.501Z,67.79395
2023-12-24T19:16:08.362Z,66.59375
2023-12-24T19:18:09.685Z,66.52441
2023-12-24T19:20:08.898Z,66.80176
2023-12-24T19:22:08.531Z,66.2207
2023-12-24T19:23:59.556Z,66.11133
2023-12-24T19:25:59.158Z,66.31738
2023-12-24T19:28:00.874Z,66.22754
2023-12-24T19:29:59.481Z,66.02832
2023-12-24T19:31:59.147Z,66.56152
2023-12-24T19:33:59.398Z,67.22363
2023-12-24T19:35:59.140Z,67.64941
2023-12-24T19:38:37.793Z,67.45996
2023-12-24T19:40:37.543Z,67.57813
2023-12-24T19:42:37.554Z,69.17676
2023-12-24T19:44:37.675Z,69.65625
2023-12-24T19:46:37.628Z,69.4834
2023-12-24T19:48:37.965Z,69.74707
2023-12-24T19:50:37.781Z,69.70215
2023-12-24T19:53:31.918Z,69.91699
2023-12-24T19:55:31.864Z,70.12012
2023-12-24T19:57:31.616Z,70.44531
2023-12-24T19:59:31.708Z,70.99414
2023-12-24T20:01:44.562Z,70.86621
2023-12-24T20:03:31.409Z,70.5
2023-12-24T20:05:31.767Z,69.87402
2023-12-24T20:07:31.601Z,69.80176
2023-12-24T20:09:19.236Z,69.02734
2023-12-24T20:11:19.281Z,68.75488
2023-12-24T20:13:19.108Z,68.36328
2023-12-24T20:15:19.232Z,68.45801
2023-12-24T20:17:19.226Z,68.53516
2023-12-24T20:19:19.144Z,68.25
2023-12-24T20:21:19.087Z,67.91016
2023-12-24T20:24:45.643Z,67.12695
2023-12-24T20:26:45.476Z,67.03223
2023-12-24T20:28:45.328Z,67.98633
2023-12-24T20:30:45.713Z,67.41602
2023-12-24T20:32:45.510Z,68.43164
2023-12-24T20:34:45.563Z,68.09375
2023-12-24T20:36:45.675Z,67.8877
2023-12-24T20:39:55.212Z,68.09375
2023-12-24T20:41:55.497Z,67.99121
2023-12-24T20:43:55.286Z,67.73438
2023-12-24T20:45:55.447Z,68.1875
2023-12-24T20:47:55.856Z,68.63184
2023-12-24T20:49:55.258Z,69.0332
2023-12-24T20:51:55.221Z,69.1709
2023-12-24T20:55:05.660Z,69.20996
2023-12-24T20:57:05.668Z,69.30566
2023-12-24T20:59:05.517Z,69.28906
2023-12-24T21:01:05.744Z,69.39258
2023-12-24T21:03:05.934Z,69.90332
2023-12-24T21:05:05.644Z,69.24023
2023-12-24T21:07:05.633Z,69.08105
2023-12-24T21:10:01.320Z,69.76465
2023-12-24T21:12:01.444Z,69.63672
2023-12-24T21:14:01.414Z,69.55469
2023-12-24T21:16:01.361Z,69.8916
2023-12-24T21:18:01.939Z,70.08398
2023-12-24T21:20:01.398Z,69.91992
2023-12-24T21:22:01.687Z,69.54688
2023-12-24T21:25:04.755Z,70.40234
2023-12-24T21:27:04.719Z,70.51855
2023-12-24T21:29:04.833Z,70.33105
2023-12-24T21:31:04.908Z,70.48535
2023-12-24T21:33:04.985Z,70.30859
2023-12-24T21:35:04.845Z,71.12793
2023-12-24T21:37:04.695Z,72.14941
2023-12-24T21:39:57.238Z,70.62402
2023-12-24T21:41:57.422Z,70.5625
2023-12-24T21:43:57.278Z,70.5498
2023-12-24T21:45:57.259Z,70.53516
2023-12-24T21:47:58.254Z,71.26074
2023-12-24T21:49:57.578Z,71.23828
2023-12-24T21:51:57.234Z,70.93066
2023-12-24T21:55:26.832Z,70.85059
2023-12-24T21:57:26.793Z,71.19629
2023-12-24T21:59:26.974Z,71.06152
2023-12-24T22:01:33.442Z,71.14063
2023-12-24T22:03:30.712Z,71.82422
2023-12-24T22:05:26.966Z,71.66699
2023-12-24T22:07:27.036Z,72.08594
2023-12-24T22:10:30.215Z,72.64551
2023-12-24T22:12:30.160Z,71.78711
2023-12-24T22:14:30.262Z,72.30957
2023-12-24T22:16:30.340Z,72.37207
2023-12-24T22:18:30.419Z,72.33203
2023-12-24T22:20:30.312Z,72.29492
2023-12-24T22:22:30.130Z,72.28027
2023-12-24T22:25:55.248Z,71.99414
2023-12-24T22:27:59.775Z,71.79297
2023-12-24T22:29:55.517Z,72.66113
2023-12-24T22:31:55.320Z,72.43262
2023-12-24T22:33:55.708Z,72.39355
2023-12-24T22:35:55.320Z,72.43555
2023-12-24T22:37:56.075Z,72.84766
2023-12-24T22:41:04.123Z,72.88379
2023-12-24T22:43:04.109Z,72.42871
2023-12-24T22:45:04.119Z,72.61719
2023-12-24T22:47:04.229Z,72.3252
2023-12-24T22:49:04.355Z,72.66992
2023-12-24T22:51:04.942Z,73.08691
2023-12-24T22:53:04.099Z,72.90039
2023-12-24T22:56:22.424Z,73.56641
2023-12-24T22:58:22.241Z,73.2627
2023-12-24T23:00:22.279Z,73.65234
2023-12-24T23:02:22.387Z,72.64746
2023-12-24T23:04:22.314Z,72.46973
2023-12-24T23:06:22.700Z,72.49219
2023-12-24T23:08:22.910Z,72.3291
2023-12-24T23:10:55.542Z,73.1543
2023-12-24T23:12:55.447Z,73.29883
2023-12-24T23:14:55.912Z,73.2041
2023-12-24T23:16:55.456Z,73.66309
2023-12-24T23:18:55.688Z,73.40527
2023-12-24T23:20:55.994Z,73.55176
2023-12-24T23:22:55.426Z,73.89844
2023-12-24T23:26:35.317Z,73.11523
2023-12-24T23:28:34.797Z,72.98438
2023-12-24T23:30:34.796Z,73.11914
2023-12-24T23:32:35.011Z,72.51172
2023-12-24T23:34:35.102Z,72.72363
2023-12-24T23:36:34.717Z,73.06055
2023-12-24T23:38:34.974Z,73.23242
2023-12-24T23:41:33.720Z,73.07617
2023-12-24T23:43:36.609Z,73.06445
2023-12-24T23:45:33.713Z,73.31641
2023-12-24T23:47:34.019Z,73.6084
2023-12-24T23:49:33.758Z,73.86133
2023-12-24T23:51:33.964Z,73.16895
2023-12-24T23:53:33.929Z,72.94727
2023-12-24T23:56:40.940Z,73.66504
2023-12-24T23:58:41.059Z,74.3623
